createdAt,value
2022-09-17T00:00:17.763Z,62.51
2022-09-17T00:05:19.465Z,63.43
2022-09-17T00:10:21.488Z,61.52
2022-09-17T00:15:23.083Z,60.41
2022-09-17T00:20:26.386Z,61.51
2022-09-17T00:25:28.059Z,60.49
2022-09-17T00:30:29.661Z,59.98
2022-09-17T00:35:31.323Z,59.76
2022-09-17T00:40:33.140Z,58.27
2022-09-17T00:45:34.774Z,58.50
2022-09-17T00:50:42.226Z,56.92
2022-09-17T00:55:48.795Z,54.73
2022-09-17T01:00:50.627Z,55.36
2022-09-17T01:06:29.663Z,60.64
2022-09-17T01:11:40.387Z,59.03
2022-09-17T01:17:20.461Z,62.36
2022-09-17T01:22:30.706Z,60.57
2022-09-17T01:28:07.951Z,61.38
2022-09-17T01:33:21.460Z,59.75
2022-09-17T01:38:32.294Z,57.64
2022-09-17T01:43:46.123Z,58.90
2022-09-17T01:48:51.983Z,60.83
2022-09-17T01:54:04.968Z,62.79
2022-09-17T01:59:30.599Z,64.72
2022-09-17T02:04:43.853Z,64.42
2022-09-17T02:09:54.938Z,65.02
2022-09-17T02:15:00.400Z,61.11
2022-09-17T02:20:03.529Z,62.33
2022-09-17T02:25:14.914Z,62.03
2022-09-17T02:30:17.765Z,60.59
2022-09-17T02:35:19.622Z,61.18
2022-09-17T02:40:30.317Z,62.78
2022-09-17T02:45:46.836Z,64.05
2022-09-17T02:51:27.920Z,64.41
2022-09-17T02:56:55.159Z,61.44
2022-09-17T03:02:27.012Z,58.26
2022-09-17T03:07:29.228Z,57.67
2022-09-17T03:12:31.181Z,54.80
2022-09-17T03:17:32.933Z,55.14
2022-09-17T03:22:35.730Z,56.72
2022-09-17T03:27:37.468Z,58.33
2022-09-17T03:32:39.073Z,60.74
2022-09-17T03:37:40.746Z,58.01
2022-09-17T03:42:42.421Z,57.90
2022-09-17T03:47:44.033Z,57.84
2022-09-17T03:52:45.821Z,56.07
2022-09-17T03:57:47.473Z,54.32
2022-09-17T04:02:49.237Z,52.62
2022-09-17T04:07:50.875Z,58.47
2022-09-17T04:12:52.530Z,59.78
2022-09-17T04:17:58.897Z,60.98
2022-09-17T04:23:00.605Z,61.24
2022-09-17T04:28:02.574Z,61.19
2022-09-17T04:33:04.839Z,60.20
2022-09-17T04:38:06.586Z,59.18
2022-09-17T04:43:10.539Z,61.10
2022-09-17T04:48:12.126Z,63.52
2022-09-17T04:53:13.932Z,62.91
2022-09-17T04:58:15.573Z,63.92
2022-09-17T05:03:17.179Z,64.29
2022-09-17T05:08:18.755Z,65.76
2022-09-17T05:13:20.330Z,66.82
2022-09-17T05:18:22.490Z,67.27
2022-09-17T05:23:24.255Z,65.47
2022-09-17T05:28:26.542Z,64.35
2022-09-17T05:33:28.685Z,62.32
2022-09-17T05:38:30.376Z,61.72
2022-09-17T05:43:32.483Z,60.59
2022-09-17T05:48:34.575Z,59.43
2022-09-17T05:53:36.266Z,60.53
2022-09-17T05:58:37.862Z,59.08
2022-09-17T06:03:39.559Z,58.88
2022-09-17T06:08:41.273Z,57.72
2022-09-17T06:13:43.885Z,57.66
2022-09-17T06:18:45.801Z,58.51
2022-09-17T06:23:47.955Z,61.38
2022-09-17T06:28:49.794Z,60.04
2022-09-17T06:33:51.430Z,60.77
2022-09-17T06:38:53.103Z,59.37
2022-09-17T06:43:54.682Z,59.67
2022-09-17T06:48:56.407Z,60.60
2022-09-17T06:53:58.111Z,62.04
2022-09-17T06:59:00.090Z,62.49
2022-09-17T07:04:02.224Z,62.25
2022-09-17T07:09:06.845Z,57.26
2022-09-17T07:14:10.827Z,60.48
2022-09-17T07:19:14.793Z,64.02
2022-09-17T07:24:16.737Z,65.04
2022-09-17T07:29:18.650Z,66.00
2022-09-17T07:34:20.529Z,65.86
2022-09-17T07:39:22.199Z,66.73
2022-09-17T07:44:23.896Z,68.16
2022-09-17T07:49:26.187Z,66.99
2022-09-17T07:54:28.034Z,63.70
2022-09-17T07:59:29.750Z,65.68
2022-09-17T08:04:31.453Z,67.73
2022-09-17T08:09:33.554Z,70.00
2022-09-17T08:14:35.283Z,68.88
2022-09-17T08:19:36.965Z,67.48
2022-09-17T08:24:38.612Z,68.10
2022-09-17T08:29:40.225Z,70.04
2022-09-17T08:34:41.800Z,71.51
2022-09-17T08:39:43.447Z,71.93
2022-09-17T08:44:49.136Z,73.00
2022-09-17T08:49:56.035Z,69.74
2022-09-17T08:55:11.273Z,67.69
2022-09-17T09:00:19.670Z,64.99
2022-09-17T09:05:26.812Z,62.36
2022-09-17T09:10:33.958Z,64.32
2022-09-17T09:15:45.450Z,62.85
2022-09-17T09:21:26.672Z,62.64
2022-09-17T09:26:45.212Z,58.48
2022-09-17T09:31:55.971Z,60.18
2022-09-17T09:37:16.092Z,61.88
2022-09-17T09:42:32.344Z,59.87
2022-09-17T09:47:52.024Z,59.55
2022-09-17T09:53:17.911Z,56.46
2022-09-17T09:58:35.715Z,54.60
2022-09-17T10:03:41.222Z,50.19
2022-09-17T10:09:04.341Z,48.60
2022-09-17T10:14:26.445Z,51.50
2022-09-17T10:19:28.051Z,50.19
2022-09-17T10:24:33.270Z,47.88
2022-09-17T10:29:35.380Z,47.54
2022-09-17T10:34:37.084Z,49.07
2022-09-17T10:39:48.765Z,47.38
2022-09-17T10:44:54.366Z,44.56
2022-09-17T10:50:08.401Z,45.18
2022-09-17T10:55:33.491Z,51.25
2022-09-17T11:01:02.957Z,42.25
2022-09-17T11:06:37.729Z,41.43
2022-09-17T11:12:04.386Z,39.30
2022-09-17T11:17:35.584Z,43.78
2022-09-17T11:22:43.194Z,41.41
2022-09-17T11:27:54.085Z,48.74
2022-09-17T11:33:16.031Z,48.83
2022-09-17T11:38:27.723Z,48.18
2022-09-17T11:43:35.669Z,48.29
2022-09-17T11:48:59.492Z,45.78
2022-09-17T11:54:08.201Z,44.61
2022-09-17T11:59:36.675Z,48.19
2022-09-17T12:04:47.452Z,46.32
2022-09-17T12:09:56.425Z,48.33
2022-09-17T12:15:02.438Z,47.68
2022-09-17T12:20:20.248Z,48.94
2022-09-17T12:25:24.482Z,44.99
2022-09-17T12:30:55.786Z,50.32
2022-09-17T12:36:23.658Z,46.45
2022-09-17T12:41:43.945Z,46.50
2022-09-17T12:46:57.468Z,50.01
2022-09-17T12:52:19.160Z,48.02
2022-09-17T12:57:58.653Z,44.43
2022-09-17T13:03:26.618Z,43.66
2022-09-17T13:08:53.683Z,45.18
2022-09-17T13:14:17.480Z,40.12
2022-09-17T13:19:38.699Z,42.77
2022-09-17T13:24:43.873Z,38.98
2022-09-17T13:29:47.701Z,39.14
2022-09-17T13:39:53.014Z,38.50
2022-09-17T13:45:08.884Z,46.15
2022-09-17T13:50:34.840Z,49.09
2022-09-17T13:55:43.829Z,46.28
2022-09-17T14:01:02.661Z,42.90
2022-09-17T14:06:08.478Z,42.78
2022-09-17T14:11:22.350Z,45.88
2022-09-17T14:16:37.169Z,40.85
2022-09-17T14:21:41.107Z,41.65
2022-09-17T14:27:04.582Z,41.30
2022-09-17T14:32:07.100Z,49.01
2022-09-17T14:37:16.133Z,44.04
2022-09-17T14:42:22.831Z,40.56
2022-09-17T14:47:24.753Z,39.68
2022-09-17T14:52:28.083Z,40.16
2022-09-17T14:57:30.018Z,40.21
2022-09-17T15:02:38.745Z,39.34
2022-09-17T15:07:44.394Z,43.03
2022-09-17T15:12:49.932Z,43.07
2022-09-17T15:17:52.458Z,43.02
2022-09-17T15:23:09.287Z,47.47
2022-09-17T15:28:31.480Z,48.38
2022-09-17T15:33:35.175Z,48.75
2022-09-17T15:38:39.181Z,52.73
2022-09-17T15:43:41.377Z,58.91
2022-09-17T15:48:43.051Z,59.37
2022-09-17T15:53:53.353Z,58.59
2022-09-17T15:59:23.479Z,57.16
2022-09-17T16:04:34.735Z,53.46
2022-09-17T16:09:47.124Z,53.27
2022-09-17T16:14:51.967Z,56.74
2022-09-17T16:19:56.015Z,58.27
2022-09-17T16:24:57.868Z,58.84
2022-09-17T16:30:06.541Z,62.06
2022-09-17T16:35:16.431Z,64.23
2022-09-17T16:40:19.763Z,67.37
2022-09-17T16:45:25.399Z,66.58
2022-09-17T16:50:54.892Z,67.84
2022-09-17T16:55:56.514Z,68.15
2022-09-17T17:00:58.205Z,67.03
2022-09-17T17:05:59.929Z,66.68
2022-09-17T17:11:01.682Z,67.44
2022-09-17T17:16:15.210Z,68.03
2022-09-17T17:21:16.948Z,65.52
2022-09-17T17:26:18.537Z,66.05
2022-09-17T17:31:20.307Z,68.31
2022-09-17T17:36:24.142Z,70.98
2022-09-17T17:41:27.415Z,72.21
2022-09-17T17:46:29.182Z,67.31
2022-09-17T17:51:30.981Z,63.13
2022-09-17T17:56:32.866Z,61.64
2022-09-17T18:01:35.151Z,62.03
2022-09-17T18:06:37.120Z,62.13
2022-09-17T18:11:38.931Z,61.88
2022-09-17T18:16:40.879Z,61.34
2022-09-17T18:21:42.686Z,60.47
2022-09-17T18:26:45.074Z,60.75
2022-09-17T18:31:48.815Z,60.63
2022-09-17T18:36:51.456Z,61.23
2022-09-17T18:41:53.206Z,64.65
2022-09-17T18:46:54.855Z,67.00
2022-09-17T18:51:56.606Z,68.07
2022-09-17T18:56:58.466Z,68.43
2022-09-17T19:02:00.173Z,67.91
2022-09-17T19:07:02.015Z,69.03
2022-09-17T19:12:03.833Z,69.56
2022-09-17T19:17:05.518Z,69.20
2022-09-17T19:22:08.224Z,69.87
2022-09-17T19:27:10.021Z,71.04
2022-09-17T19:32:11.822Z,72.39
2022-09-17T19:37:13.441Z,69.43
2022-09-17T19:42:15.074Z,65.27
2022-09-17T19:47:16.644Z,64.61
2022-09-17T19:52:19.671Z,63.79
2022-09-17T19:57:21.363Z,66.19
2022-09-17T20:02:22.940Z,66.84
2022-09-17T20:07:24.779Z,70.20
2022-09-17T20:12:26.452Z,71.65
2022-09-17T20:17:29.780Z,70.05
2022-09-17T20:22:31.441Z,69.95
2022-09-17T20:27:33.311Z,71.51
2022-09-17T20:32:34.884Z,73.15
2022-09-17T20:38:28.436Z,69.99
2022-09-17T20:42:58.334Z,68.63
2022-09-17T20:48:00.024Z,70.02
2022-09-17T20:53:01.648Z,73.18
2022-09-17T20:58:03.363Z,74.22
2022-09-17T21:03:05.703Z,72.50
2022-09-17T21:08:07.374Z,69.21
2022-09-17T21:13:09.550Z,70.74
2022-09-17T21:18:14.110Z,72.42
2022-09-17T21:23:15.854Z,74.45
2022-09-17T21:28:20.444Z,73.08
2022-09-17T21:33:22.216Z,72.27
2022-09-17T21:38:23.821Z,71.96
2022-09-17T21:43:26.502Z,72.44
2022-09-17T21:48:29.606Z,73.77
2022-09-17T21:53:32.685Z,72.55
2022-09-17T21:58:34.771Z,74.88
2022-09-17T22:03:36.513Z,75.16
2022-09-17T22:08:39.177Z,76.48
2022-09-17T22:13:41.626Z,76.71
2022-09-17T22:18:47.143Z,75.73
2022-09-17T22:23:50.563Z,75.92
2022-09-17T22:28:52.658Z,77.57
2022-09-17T22:33:54.350Z,77.26
2022-09-17T22:38:58.066Z,75.51
2022-09-17T22:44:04.775Z,77.35
2022-09-17T22:49:08.319Z,77.34
2022-09-17T22:54:14.971Z,79.34
2022-09-17T22:59:18.176Z,78.86
2022-09-17T23:04:19.993Z,77.58
2022-09-17T23:09:21.604Z,76.23
2022-09-17T23:14:23.234Z,74.82
2022-09-17T23:19:24.860Z,68.73
2022-09-17T23:24:26.576Z,72.07
2022-09-17T23:29:28.229Z,73.87
2022-09-17T23:34:29.810Z,74.87
2022-09-17T23:39:33.532Z,75.71
2022-09-17T23:44:36.192Z,76.28
2022-09-17T23:49:37.810Z,76.78
2022-09-17T23:54:39.457Z,76.88
2022-09-17T23:59:41.123Z,77.08
